createdAt,value
2023-04-15T00:08:30.691Z,0
2023-04-15T00:24:28.817Z,0
2023-04-15T00:35:06.871Z,0
2023-04-15T00:40:25.993Z,0
2023-04-15T00:51:04.142Z,0
2023-04-15T00:56:23.465Z,0
2023-04-15T01:07:02.594Z,0
2023-04-15T01:17:41.779Z,0
2023-04-15T01:23:01.232Z,0
2023-04-15T01:33:40.091Z,0
2023-04-15T01:49:38.362Z,0
2023-04-15T02:00:16.745Z,0
2023-04-15T02:05:36.400Z,0
2023-04-15T02:16:14.309Z,0
2023-04-15T02:21:33.113Z,0
2023-04-15T02:32:11.414Z,0
2023-04-15T02:42:50.250Z,0
2023-04-15T02:48:09.946Z,0
2023-04-15T02:58:48.917Z,0
2023-04-15T03:04:08.771Z,0
2023-04-15T03:14:47.541Z,0
2023-04-15T03:30:44.829Z,0
2023-04-15T03:41:23.788Z,0
2023-04-15T03:46:42.926Z,0
2023-04-15T03:57:21.261Z,0
2023-04-15T04:02:40.413Z,0
2023-04-15T04:13:19.513Z,0
2023-04-15T04:23:57.916Z,0.006
2023-04-15T04:34:36.708Z,0.0252
2023-04-15T04:39:56.161Z,0.0325
2023-04-15T04:50:33.968Z,0.041
2023-04-15T05:01:13.011Z,0.0578
2023-04-15T05:06:32.335Z,0.0619
2023-04-15T05:17:11.481Z,0.0758
2023-04-15T05:22:31.220Z,0.0844
2023-04-15T05:33:09.535Z,0.1033
2023-04-15T05:43:48.043Z,0.122
2023-04-15T05:49:07.725Z,0.1322
2023-04-15T05:59:46.753Z,0.1336
2023-04-15T06:05:05.744Z,0.1334
2023-04-15T06:15:44.381Z,0.163
2023-04-15T06:31:43.111Z,0.1835
2023-04-15T06:42:21.323Z,0.1696
2023-04-15T06:47:40.617Z,0.1775
2023-04-15T06:58:19.687Z,0.1744
2023-04-15T07:03:39.228Z,0.1899
2023-04-15T07:14:17.734Z,0.2445
2023-04-15T07:24:56.494Z,0.2747
2023-04-15T07:30:16.003Z,0.2814
2023-04-15T07:40:53.772Z,0.3435
2023-04-15T07:46:12.341Z,0.3363
2023-04-15T07:56:51.114Z,0.331
2023-04-15T08:07:30.326Z,0.394
2023-04-15T08:12:49.188Z,0.4293
2023-04-15T08:23:27.608Z,0.3998
2023-04-15T08:28:46.926Z,0.3902
2023-04-15T08:39:24.178Z,0.44
2023-04-15T08:44:43.391Z,0.4469
2023-04-15T08:55:21.558Z,0.5456
2023-04-15T09:05:59.493Z,0.5366
2023-04-15T09:11:20.063Z,0.5915
2023-04-15T09:21:58.759Z,0.8429
2023-04-15T09:27:16.674Z,0.9507
2023-04-15T09:37:54.486Z,0.3829
2023-04-15T09:48:32.955Z,0.3956
2023-04-15T09:53:51.768Z,0.5119
2023-04-15T10:04:31.257Z,0.554
2023-04-15T10:09:50.797Z,0.5685
2023-04-15T10:20:28.771Z,0.6316
2023-04-15T10:31:07.932Z,0.694
2023-04-15T10:36:26.752Z,0.4244
2023-04-15T10:47:04.842Z,0.2224
2023-04-15T10:52:24.056Z,0.2254
2023-04-15T11:03:02.441Z,0.173
2023-04-15T11:08:21.147Z,0.1633
2023-04-15T11:13:39.965Z,0.165
2023-04-15T11:24:18.174Z,0.1862
2023-04-15T11:29:37.872Z,0.1704
2023-04-15T11:40:17.091Z,0.1732
2023-04-15T11:45:36.762Z,0.1856
2023-04-15T11:56:14.959Z,0.2262
2023-04-15T12:06:53.676Z,0.326
2023-04-15T12:12:12.569Z,0.3473
2023-04-15T12:22:51.183Z,0.2833
2023-04-15T12:28:10.041Z,0.2332
2023-04-15T12:38:47.981Z,0.2831
2023-04-15T12:49:26.138Z,0.2468
2023-04-15T12:54:45.678Z,0.2298
2023-04-15T13:05:24.133Z,0.2571
2023-04-15T13:10:43.726Z,0.2075
2023-04-15T13:21:30.413Z,0.1568
2023-04-15T13:37:19.376Z,0.1365
2023-04-15T13:47:58.002Z,0.1151
2023-04-15T13:53:17.556Z,0.0909
2023-04-15T14:03:56.300Z,0.1407
2023-04-15T14:09:15.611Z,0.104
2023-04-15T14:19:54.306Z,0.173
2023-04-15T14:30:32.563Z,0.1334
2023-04-15T14:36:24.446Z,0.1079
2023-04-15T14:52:22.047Z,0.0893
2023-04-15T15:03:00.862Z,0.0884
2023-04-15T15:08:20.034Z,0.0772
2023-04-15T15:18:59.112Z,0.0773
2023-04-15T15:24:18.009Z,0.0601
2023-04-15T15:34:56.546Z,0.0766
2023-04-15T15:50:54.292Z,0.079
2023-04-15T16:01:32.986Z,0.108
2023-04-15T16:06:52.063Z,0.0794
2023-04-15T16:17:30.197Z,0.0836
2023-04-15T16:22:48.888Z,0.0685
2023-04-15T16:33:27.606Z,0.0942
2023-04-15T16:49:25.044Z,0.0636
2023-04-15T17:00:03.715Z,0.0427
2023-04-15T17:05:23.096Z,0.0459
2023-04-15T17:16:01.805Z,0.0666
2023-04-15T17:26:40.511Z,0.0436
2023-04-15T17:31:59.737Z,0.0382
2023-04-15T17:42:38.965Z,0.0346
2023-04-15T17:47:58.292Z,0.03
2023-04-15T17:53:17.808Z,0.0243
2023-04-15T18:03:57.029Z,0.0078
2023-04-15T18:09:15.743Z,0.0042
2023-04-15T18:19:53.898Z,0
2023-04-15T18:25:13.692Z,0
2023-04-15T18:35:52.599Z,0
2023-04-15T18:41:12.435Z,0
2023-04-15T18:51:50.626Z,0
2023-04-15T19:02:28.720Z,0
2023-04-15T19:07:47.484Z,0
2023-04-15T19:18:25.806Z,0
2023-04-15T19:23:45.200Z,0
2023-04-15T19:34:23.632Z,0
2023-04-15T19:45:03.126Z,0
2023-04-15T19:50:22.739Z,0
2023-04-15T20:01:01.000Z,0
2023-04-15T20:06:20.051Z,0
2023-04-15T20:16:58.652Z,0
2023-04-15T20:27:37.558Z,0
2023-04-15T20:32:56.652Z,0
2023-04-15T20:43:35.065Z,0
2023-04-15T20:48:53.867Z,0
2023-04-15T20:59:32.626Z,0
2023-04-15T21:04:51.696Z,0
2023-04-15T21:15:30.871Z,0
2023-04-15T21:26:10.435Z,0
2023-04-15T21:31:29.451Z,0
2023-04-15T21:42:07.939Z,0
2023-04-15T21:47:27.537Z,0
2023-04-15T21:58:05.750Z,0
2023-04-15T22:08:52.976Z,0
2023-04-15T22:14:02.514Z,0
2023-04-15T22:24:41.604Z,0
2023-04-15T22:30:00.792Z,0
2023-04-15T22:40:38.815Z,0
2023-04-15T22:51:16.878Z,0
2023-04-15T22:56:36.458Z,0
2023-04-15T23:07:15.415Z,0
2023-04-15T23:12:34.807Z,0
2023-04-15T23:23:13.733Z,0
2023-04-15T23:28:40.511Z,0
2023-04-15T23:39:11.499Z,0
2023-04-15T23:49:50.347Z,0
2023-04-15T23:55:09.837Z,0
